sensor_id;sensor_type;location;lat;lon;timestamp;P1;durP1;ratioP1;P2;durP2;ratioP2
3587;SDS011;1808;53.596;9.972;2023-02-07T00:02:22;32.97;;;17.27;;
3587;SDS011;1808;53.596;9.972;2023-02-07T00:04:48;34.42;;;15.30;;
3587;SDS011;1808;53.596;9.972;2023-02-07T00:07:16;35.03;;;15.95;;
3587;SDS011;1808;53.596;9.972;2023-02-07T00:09:43;31.05;;;15.25;;
3587;SDS011;1808;53.596;9.972;2023-02-07T00:12:09;35.38;;;16.40;;
3587;SDS011;1808;53.596;9.972;2023-02-07T00:14:35;34.17;;;15.00;;
3587;SDS011;1808;53.596;9.972;2023-02-07T00:17:02;33.45;;;15.50;;
3587;SDS011;1808;53.596;9.972;2023-02-07T00:19:29;37.90;;;16.63;;
3587;SDS011;1808;53.596;9.972;2023-02-07T00:21:55;37.83;;;16.00;;
3587;SDS011;1808;53.596;9.972;2023-02-07T00:24:23;33.10;;;15.48;;
3587;SDS011;1808;53.596;9.972;2023-02-07T00:26:50;30.65;;;15.50;;
3587;SDS011;1808;53.596;9.972;2023-02-07T00:29:17;39.53;;;19.50;;
3587;SDS011;1808;53.596;9.972;2023-02-07T00:31:43;37.33;;;15.85;;
3587;SDS011;1808;53.596;9.972;2023-02-07T00:34:10;35.03;;;18.10;;
3587;SDS011;1808;53.596;9.972;2023-02-07T00:36:37;37.55;;;18.38;;
3587;SDS011;1808;53.596;9.972;2023-02-07T00:39:05;36.55;;;17.10;;
3587;SDS011;1808;53.596;9.972;2023-02-07T00:41:34;37.00;;;18.35;;
3587;SDS011;1808;53.596;9.972;2023-02-07T00:44:01;37.53;;;17.25;;
3587;SDS011;1808;53.596;9.972;2023-02-07T00:46:27;35.88;;;17.05;;
3587;SDS011;1808;53.596;9.972;2023-02-07T00:48:54;38.00;;;17.95;;
3587;SDS011;1808;53.596;9.972;2023-02-07T00:51:20;43.22;;;18.73;;
3587;SDS011;1808;53.596;9.972;2023-02-07T00:53:49;39.83;;;17.90;;
3587;SDS011;1808;53.596;9.972;2023-02-07T00:56:18;35.97;;;18.10;;
3587;SDS011;1808;53.596;9.972;2023-02-07T00:58:46;42.08;;;19.58;;
3587;SDS011;1808;53.596;9.972;2023-02-07T01:01:12;42.15;;;17.33;;
3587;SDS011;1808;53.596;9.972;2023-02-07T01:03:39;38.85;;;17.55;;
3587;SDS011;1808;53.596;9.972;2023-02-07T01:06:06;34.35;;;17.33;;
3587;SDS011;1808;53.596;9.972;2023-02-07T01:08:33;37.33;;;17.42;;
3587;SDS011;1808;53.596;9.972;2023-02-07T01:11:00;30.60;;;16.33;;
3587;SDS011;1808;53.596;9.972;2023-02-07T01:13:27;35.25;;;16.77;;
3587;SDS011;1808;53.596;9.972;2023-02-07T01:15:55;34.88;;;18.10;;
3587;SDS011;1808;53.596;9.972;2023-02-07T01:18:21;43.08;;;19.33;;
3587;SDS011;1808;53.596;9.972;2023-02-07T01:20:48;39.78;;;19.27;;
3587;SDS011;1808;53.596;9.972;2023-02-07T01:23:14;33.55;;;17.60;;
3587;SDS011;1808;53.596;9.972;2023-02-07T01:25:40;41.28;;;18.50;;
3587;SDS011;1808;53.596;9.972;2023-02-07T01:28:08;37.22;;;17.92;;
3587;SDS011;1808;53.596;9.972;2023-02-07T01:30:36;40.83;;;18.70;;
3587;SDS011;1808;53.596;9.972;2023-02-07T01:33:05;38.70;;;18.42;;
3587;SDS011;1808;53.596;9.972;2023-02-07T01:35:32;39.03;;;19.05;;
3587;SDS011;1808;53.596;9.972;2023-02-07T01:37:58;41.08;;;18.52;;
3587;SDS011;1808;53.596;9.972;2023-02-07T01:40:26;42.78;;;18.65;;
3587;SDS011;1808;53.596;9.972;2023-02-07T01:42:53;38.42;;;18.45;;
3587;SDS011;1808;53.596;9.972;2023-02-07T01:45:22;39.50;;;19.83;;
3587;SDS011;1808;53.596;9.972;2023-02-07T01:47:51;39.75;;;19.17;;
3587;SDS011;1808;53.596;9.972;2023-02-07T01:50:19;41.17;;;19.55;;
3587;SDS011;1808;53.596;9.972;2023-02-07T01:52:45;45.08;;;19.35;;
3587;SDS011;1808;53.596;9.972;2023-02-07T01:55:12;38.45;;;19.48;;
3587;SDS011;1808;53.596;9.972;2023-02-07T01:57:39;38.55;;;18.38;;
3587;SDS011;1808;53.596;9.972;2023-02-07T02:00:07;40.08;;;17.73;;
3587;SDS011;1808;53.596;9.972;2023-02-07T02:02:34;37.95;;;17.52;;
3587;SDS011;1808;53.596;9.972;2023-02-07T02:05:02;46.50;;;18.08;;
3587;SDS011;1808;53.596;9.972;2023-02-07T02:07:30;33.90;;;17.90;;
3587;SDS011;1808;53.596;9.972;2023-02-07T02:09:57;44.22;;;18.63;;
3587;SDS011;1808;53.596;9.972;2023-02-07T02:12:27;38.15;;;18.23;;
3587;SDS011;1808;53.596;9.972;2023-02-07T02:15:10;41.75;;;18.60;;
3587;SDS011;1808;53.596;9.972;2023-02-07T02:17:44;38.40;;;17.33;;
3587;SDS011;1808;53.596;9.972;2023-02-07T02:20:56;38.53;;;17.33;;
3587;SDS011;1808;53.596;9.972;2023-02-07T02:23:48;30.98;;;15.27;;
3587;SDS011;1808;53.596;9.972;2023-02-07T02:26:37;43.53;;;18.38;;
3587;SDS011;1808;53.596;9.972;2023-02-07T02:32:07;37.08;;;16.60;;
3587;SDS011;1808;53.596;9.972;2023-02-07T02:37:16;38.33;;;16.25;;
3587;SDS011;1808;53.596;9.972;2023-02-07T02:39:50;36.33;;;15.50;;
3587;SDS011;1808;53.596;9.972;2023-02-07T02:42:22;36.03;;;16.17;;
3587;SDS011;1808;53.596;9.972;2023-02-07T02:44:51;36.00;;;16.98;;
3587;SDS011;1808;53.596;9.972;2023-02-07T02:47:20;33.92;;;15.38;;
3587;SDS011;1808;53.596;9.972;2023-02-07T02:49:48;34.45;;;18.08;;
3587;SDS011;1808;53.596;9.972;2023-02-07T02:52:15;33.20;;;14.60;;
3587;SDS011;1808;53.596;9.972;2023-02-07T02:54:41;30.80;;;14.75;;
3587;SDS011;1808;53.596;9.972;2023-02-07T02:57:16;30.15;;;14.68;;
3587;SDS011;1808;53.596;9.972;2023-02-07T03:00:10;30.40;;;13.52;;
3587;SDS011;1808;53.596;9.972;2023-02-07T03:02:44;27.55;;;13.23;;
3587;SDS011;1808;53.596;9.972;2023-02-07T03:05:24;32.95;;;13.80;;
3587;SDS011;1808;53.596;9.972;2023-02-07T03:08:02;27.42;;;13.38;;
3587;SDS011;1808;53.596;9.972;2023-02-07T03:10:31;28.33;;;13.43;;
3587;SDS011;1808;53.596;9.972;2023-02-07T03:13:05;25.92;;;12.75;;
3587;SDS011;1808;53.596;9.972;2023-02-07T03:15:34;26.55;;;12.65;;
3587;SDS011;1808;53.596;9.972;2023-02-07T03:18:07;29.15;;;13.73;;
3587;SDS011;1808;53.596;9.972;2023-02-07T03:20:39;27.80;;;13.10;;
3587;SDS011;1808;53.596;9.972;2023-02-07T03:23:08;27.75;;;13.82;;
3587;SDS011;1808;53.596;9.972;2023-02-07T03:25:36;27.38;;;13.57;;
3587;SDS011;1808;53.596;9.972;2023-02-07T03:28:04;30.17;;;13.50;;
3587;SDS011;1808;53.596;9.972;2023-02-07T03:30:32;24.48;;;11.55;;
3587;SDS011;1808;53.596;9.972;2023-02-07T03:33:00;30.60;;;12.77;;
3587;SDS011;1808;53.596;9.972;2023-02-07T03:35:34;26.77;;;11.55;;
3587;SDS011;1808;53.596;9.972;2023-02-07T03:38:04;28.20;;;14.23;;
3587;SDS011;1808;53.596;9.972;2023-02-07T03:40:32;29.08;;;14.00;;
3587;SDS011;1808;53.596;9.972;2023-02-07T03:43:03;27.80;;;12.77;;
3587;SDS011;1808;53.596;9.972;2023-02-07T03:45:32;25.65;;;12.05;;
3587;SDS011;1808;53.596;9.972;2023-02-07T03:47:58;28.17;;;12.65;;
3587;SDS011;1808;53.596;9.972;2023-02-07T03:50:25;26.50;;;12.38;;
3587;SDS011;1808;53.596;9.972;2023-02-07T03:52:51;31.58;;;12.88;;
3587;SDS011;1808;53.596;9.972;2023-02-07T03:55:19;31.08;;;13.60;;
3587;SDS011;1808;53.596;9.972;2023-02-07T03:57:45;30.52;;;12.15;;
3587;SDS011;1808;53.596;9.972;2023-02-07T04:00:12;36.13;;;15.20;;
3587;SDS011;1808;53.596;9.972;2023-02-07T04:02:40;23.55;;;12.25;;
3587;SDS011;1808;53.596;9.972;2023-02-07T04:05:06;28.20;;;12.07;;
3587;SDS011;1808;53.596;9.972;2023-02-07T04:07:33;27.25;;;12.77;;
3587;SDS011;1808;53.596;9.972;2023-02-07T04:09:59;25.30;;;12.40;;
3587;SDS011;1808;53.596;9.972;2023-02-07T04:12:28;25.52;;;11.88;;
3587;SDS011;1808;53.596;9.972;2023-02-07T04:14:56;21.15;;;12.23;;
3587;SDS011;1808;53.596;9.972;2023-02-07T04:17:23;26.65;;;11.60;;
3587;SDS011;1808;53.596;9.972;2023-02-07T04:19:49;26.40;;;12.75;;
3587;SDS011;1808;53.596;9.972;2023-02-07T04:22:15;21.30;;;10.80;;
3587;SDS011;1808;53.596;9.972;2023-02-07T04:24:42;23.77;;;11.30;;
3587;SDS011;1808;53.596;9.972;2023-02-07T04:27:08;27.27;;;11.38;;
3587;SDS011;1808;53.596;9.972;2023-02-07T04:29:36;28.90;;;11.68;;
3587;SDS011;1808;53.596;9.972;2023-02-07T04:32:02;25.67;;;12.80;;
3587;SDS011;1808;53.596;9.972;2023-02-07T04:34:28;29.85;;;13.07;;
3587;SDS011;1808;53.596;9.972;2023-02-07T04:36:55;23.73;;;11.27;;
3587;SDS011;1808;53.596;9.972;2023-02-07T04:39:21;26.65;;;11.77;;
3587;SDS011;1808;53.596;9.972;2023-02-07T04:41:48;24.27;;;11.60;;
3587;SDS011;1808;53.596;9.972;2023-02-07T04:44:14;27.67;;;13.10;;
3587;SDS011;1808;53.596;9.972;2023-02-07T04:46:42;31.40;;;14.05;;
3587;SDS011;1808;53.596;9.972;2023-02-07T04:49:08;23.63;;;11.85;;
3587;SDS011;1808;53.596;9.972;2023-02-07T04:51:35;26.25;;;12.43;;
3587;SDS011;1808;53.596;9.972;2023-02-07T04:54:01;36.00;;;15.82;;
3587;SDS011;1808;53.596;9.972;2023-02-07T04:56:28;34.17;;;14.52;;
3587;SDS011;1808;53.596;9.972;2023-02-07T04:58:54;31.08;;;14.45;;
3587;SDS011;1808;53.596;9.972;2023-02-07T05:01:20;35.95;;;14.05;;
3587;SDS011;1808;53.596;9.972;2023-02-07T05:03:48;24.02;;;13.20;;
3587;SDS011;1808;53.596;9.972;2023-02-07T05:06:14;27.40;;;14.27;;
3587;SDS011;1808;53.596;9.972;2023-02-07T05:08:41;33.80;;;16.05;;
3587;SDS011;1808;53.596;9.972;2023-02-07T05:11:07;28.98;;;12.55;;
3587;SDS011;1808;53.596;9.972;2023-02-07T05:13:33;26.02;;;12.85;;
3587;SDS011;1808;53.596;9.972;2023-02-07T05:16:00;24.80;;;11.50;;
3587;SDS011;1808;53.596;9.972;2023-02-07T05:18:27;34.45;;;15.35;;
3587;SDS011;1808;53.596;9.972;2023-02-07T05:20:54;28.02;;;13.73;;
3587;SDS011;1808;53.596;9.972;2023-02-07T05:23:20;24.02;;;11.80;;
3587;SDS011;1808;53.596;9.972;2023-02-07T05:25:47;32.70;;;13.40;;
3587;SDS011;1808;53.596;9.972;2023-02-07T05:28:14;31.20;;;12.30;;
3587;SDS011;1808;53.596;9.972;2023-02-07T05:30:41;31.00;;;13.88;;
3587;SDS011;1808;53.596;9.972;2023-02-07T05:33:08;29.15;;;13.68;;
3587;SDS011;1808;53.596;9.972;2023-02-07T05:35:34;38.53;;;15.60;;
3587;SDS011;1808;53.596;9.972;2023-02-07T05:38:04;27.00;;;13.00;;
3587;SDS011;1808;53.596;9.972;2023-02-07T05:40:31;32.53;;;15.85;;
3587;SDS011;1808;53.596;9.972;2023-02-07T05:42:58;31.48;;;13.05;;
3587;SDS011;1808;53.596;9.972;2023-02-07T05:45:24;28.10;;;12.75;;
3587;SDS011;1808;53.596;9.972;2023-02-07T05:47:51;35.60;;;14.30;;
3587;SDS011;1808;53.596;9.972;2023-02-07T05:50:17;29.02;;;14.20;;
3587;SDS011;1808;53.596;9.972;2023-02-07T05:52:43;34.85;;;15.00;;
3587;SDS011;1808;53.596;9.972;2023-02-07T05:55:11;37.00;;;15.07;;
3587;SDS011;1808;53.596;9.972;2023-02-07T05:57:38;34.42;;;14.10;;
3587;SDS011;1808;53.596;9.972;2023-02-07T06:00:05;32.35;;;14.10;;
3587;SDS011;1808;53.596;9.972;2023-02-07T06:02:32;32.78;;;15.20;;
3587;SDS011;1808;53.596;9.972;2023-02-07T06:04:58;31.85;;;14.30;;
3587;SDS011;1808;53.596;9.972;2023-02-07T06:07:25;28.83;;;13.75;;
3587;SDS011;1808;53.596;9.972;2023-02-07T06:09:51;31.30;;;14.35;;
3587;SDS011;1808;53.596;9.972;2023-02-07T06:12:19;27.33;;;12.73;;
3587;SDS011;1808;53.596;9.972;2023-02-07T06:14:45;30.10;;;14.00;;
3587;SDS011;1808;53.596;9.972;2023-02-07T06:17:11;27.85;;;13.30;;
3587;SDS011;1808;53.596;9.972;2023-02-07T06:19:38;29.10;;;14.25;;
3587;SDS011;1808;53.596;9.972;2023-02-07T06:22:04;28.80;;;13.85;;
3587;SDS011;1808;53.596;9.972;2023-02-07T06:24:30;27.95;;;14.07;;
3587;SDS011;1808;53.596;9.972;2023-02-07T06:26:56;36.00;;;16.27;;
3587;SDS011;1808;53.596;9.972;2023-02-07T06:29:24;35.30;;;16.65;;
3587;SDS011;1808;53.596;9.972;2023-02-07T06:31:50;34.10;;;15.90;;
3587;SDS011;1808;53.596;9.972;2023-02-07T06:34:17;26.80;;;12.77;;
3587;SDS011;1808;53.596;9.972;2023-02-07T06:36:43;35.63;;;16.02;;
3587;SDS011;1808;53.596;9.972;2023-02-07T06:39:09;33.42;;;13.98;;
3587;SDS011;1808;53.596;9.972;2023-02-07T06:41:36;32.40;;;15.77;;
3587;SDS011;1808;53.596;9.972;2023-02-07T06:44:02;30.17;;;14.43;;
3587;SDS011;1808;53.596;9.972;2023-02-07T06:46:30;33.00;;;14.70;;
3587;SDS011;1808;53.596;9.972;2023-02-07T06:48:56;32.15;;;15.18;;
3587;SDS011;1808;53.596;9.972;2023-02-07T06:51:23;31.17;;;14.98;;
3587;SDS011;1808;53.596;9.972;2023-02-07T06:53:49;34.00;;;15.43;;
3587;SDS011;1808;53.596;9.972;2023-02-07T06:56:15;34.83;;;16.42;;
3587;SDS011;1808;53.596;9.972;2023-02-07T06:58:42;35.17;;;16.13;;
3587;SDS011;1808;53.596;9.972;2023-02-07T07:01:08;30.88;;;14.80;;
3587;SDS011;1808;53.596;9.972;2023-02-07T07:03:36;30.88;;;15.55;;
3587;SDS011;1808;53.596;9.972;2023-02-07T07:06:02;31.30;;;14.55;;
3587;SDS011;1808;53.596;9.972;2023-02-07T07:08:29;30.25;;;14.70;;
3587;SDS011;1808;53.596;9.972;2023-02-07T07:10:55;38.13;;;15.70;;
3587;SDS011;1808;53.596;9.972;2023-02-07T07:13:21;32.83;;;16.08;;
3587;SDS011;1808;53.596;9.972;2023-02-07T07:15:48;33.90;;;15.90;;
3587;SDS011;1808;53.596;9.972;2023-02-07T07:18:14;29.63;;;14.68;;
3587;SDS011;1808;53.596;9.972;2023-02-07T07:20:42;34.42;;;14.98;;
3587;SDS011;1808;53.596;9.972;2023-02-07T07:23:08;33.78;;;14.55;;
3587;SDS011;1808;53.596;9.972;2023-02-07T07:25:35;29.25;;;15.00;;
3587;SDS011;1808;53.596;9.972;2023-02-07T07:28:01;35.65;;;15.93;;
3587;SDS011;1808;53.596;9.972;2023-02-07T07:30:28;30.00;;;15.02;;
3587;SDS011;1808;53.596;9.972;2023-02-07T07:32:55;36.88;;;16.67;;
3587;SDS011;1808;53.596;9.972;2023-02-07T07:35:21;34.72;;;15.52;;
3587;SDS011;1808;53.596;9.972;2023-02-07T07:37:49;36.38;;;16.02;;
3587;SDS011;1808;53.596;9.972;2023-02-07T07:40:15;31.52;;;15.02;;
3587;SDS011;1808;53.596;9.972;2023-02-07T07:42:42;36.00;;;15.95;;
3587;SDS011;1808;53.596;9.972;2023-02-07T07:45:08;36.95;;;16.05;;
3587;SDS011;1808;53.596;9.972;2023-02-07T07:47:35;37.65;;;17.00;;
3587;SDS011;1808;53.596;9.972;2023-02-07T07:50:01;30.45;;;14.95;;
3587;SDS011;1808;53.596;9.972;2023-02-07T07:52:28;36.78;;;17.02;;
3587;SDS011;1808;53.596;9.972;2023-02-07T07:54:55;35.88;;;16.17;;
3587;SDS011;1808;53.596;9.972;2023-02-07T07:57:21;35.13;;;15.38;;
3587;SDS011;1808;53.596;9.972;2023-02-07T07:59:52;43.17;;;18.52;;
3587;SDS011;1808;53.596;9.972;2023-02-07T08:02:18;38.60;;;18.65;;
3587;SDS011;1808;53.596;9.972;2023-02-07T08:04:45;35.30;;;15.98;;
3587;SDS011;1808;53.596;9.972;2023-02-07T08:07:11;38.42;;;17.42;;
3587;SDS011;1808;53.596;9.972;2023-02-07T08:09:38;38.92;;;18.20;;
3587;SDS011;1808;53.596;9.972;2023-02-07T08:12:06;42.78;;;16.00;;
3587;SDS011;1808;53.596;9.972;2023-02-07T08:14:32;45.10;;;17.85;;
3587;SDS011;1808;53.596;9.972;2023-02-07T08:16:58;40.22;;;16.17;;
3587;SDS011;1808;53.596;9.972;2023-02-07T08:19:25;44.30;;;20.27;;
3587;SDS011;1808;53.596;9.972;2023-02-07T08:21:51;42.55;;;18.70;;
3587;SDS011;1808;53.596;9.972;2023-02-07T08:24:17;41.00;;;17.90;;
3587;SDS011;1808;53.596;9.972;2023-02-07T08:26:44;44.97;;;18.60;;
3587;SDS011;1808;53.596;9.972;2023-02-07T08:29:12;37.80;;;17.17;;
3587;SDS011;1808;53.596;9.972;2023-02-07T08:31:38;45.50;;;20.33;;
3587;SDS011;1808;53.596;9.972;2023-02-07T08:34:04;44.30;;;18.35;;
3587;SDS011;1808;53.596;9.972;2023-02-07T08:36:31;41.83;;;20.75;;
3587;SDS011;1808;53.596;9.972;2023-02-07T08:38:57;45.50;;;18.65;;
3587;SDS011;1808;53.596;9.972;2023-02-07T08:41:24;47.40;;;18.92;;
3587;SDS011;1808;53.596;9.972;2023-02-07T08:43:50;38.88;;;18.45;;
3587;SDS011;1808;53.596;9.972;2023-02-07T08:46:18;39.97;;;18.85;;
3587;SDS011;1808;53.596;9.972;2023-02-07T08:48:44;46.03;;;20.02;;
3587;SDS011;1808;53.596;9.972;2023-02-07T08:51:10;46.17;;;18.83;;
3587;SDS011;1808;53.596;9.972;2023-02-07T08:53:36;53.70;;;24.92;;
3587;SDS011;1808;53.596;9.972;2023-02-07T08:56:03;36.95;;;17.02;;
3587;SDS011;1808;53.596;9.972;2023-02-07T08:58:30;53.95;;;20.77;;
3587;SDS011;1808;53.596;9.972;2023-02-07T09:00:56;42.88;;;18.30;;
3587;SDS011;1808;53.596;9.972;2023-02-07T09:03:23;37.75;;;16.05;;
3587;SDS011;1808;53.596;9.972;2023-02-07T09:05:56;35.65;;;15.27;;
3587;SDS011;1808;53.596;9.972;2023-02-07T09:08:22;41.38;;;18.50;;
3587;SDS011;1808;53.596;9.972;2023-02-07T09:10:49;37.33;;;16.25;;
3587;SDS011;1808;53.596;9.972;2023-02-07T09:13:15;37.72;;;16.25;;
3587;SDS011;1808;53.596;9.972;2023-02-07T09:15:41;38.33;;;18.60;;
3587;SDS011;1808;53.596;9.972;2023-02-07T09:18:08;33.53;;;15.77;;
3587;SDS011;1808;53.596;9.972;2023-02-07T09:20:35;37.80;;;16.10;;
3587;SDS011;1808;53.596;9.972;2023-02-07T09:23:03;30.50;;;15.30;;
3587;SDS011;1808;53.596;9.972;2023-02-07T09:25:45;35.38;;;16.77;;
3587;SDS011;1808;53.596;9.972;2023-02-07T09:28:13;37.42;;;17.13;;
3587;SDS011;1808;53.596;9.972;2023-02-07T09:30:40;37.00;;;16.63;;
3587;SDS011;1808;53.596;9.972;2023-02-07T09:33:06;43.55;;;19.17;;
3587;SDS011;1808;53.596;9.972;2023-02-07T09:35:36;37.03;;;17.23;;
3587;SDS011;1808;53.596;9.972;2023-02-07T09:38:03;36.22;;;16.13;;
3587;SDS011;1808;53.596;9.972;2023-02-07T09:40:29;40.47;;;21.05;;
3587;SDS011;1808;53.596;9.972;2023-02-07T09:42:57;34.33;;;14.93;;
3587;SDS011;1808;53.596;9.972;2023-02-07T09:45:29;36.20;;;15.95;;
3587;SDS011;1808;53.596;9.972;2023-02-07T09:47:57;32.42;;;15.93;;
3587;SDS011;1808;53.596;9.972;2023-02-07T09:50:27;40.33;;;19.35;;
3587;SDS011;1808;53.596;9.972;2023-02-07T09:52:58;37.63;;;16.88;;
3587;SDS011;1808;53.596;9.972;2023-02-07T09:55:29;38.42;;;17.65;;
3587;SDS011;1808;53.596;9.972;2023-02-07T09:57:57;39.60;;;16.30;;
3587;SDS011;1808;53.596;9.972;2023-02-07T10:00:27;31.85;;;14.10;;
3587;SDS011;1808;53.596;9.972;2023-02-07T10:02:56;42.67;;;17.55;;
3587;SDS011;1808;53.596;9.972;2023-02-07T10:05:25;42.85;;;19.75;;
3587;SDS011;1808;53.596;9.972;2023-02-07T10:07:54;30.55;;;14.70;;
3587;SDS011;1808;53.596;9.972;2023-02-07T10:10:22;34.22;;;15.07;;
3587;SDS011;1808;53.596;9.972;2023-02-07T10:12:59;32.75;;;15.73;;
3587;SDS011;1808;53.596;9.972;2023-02-07T10:15:35;34.90;;;15.95;;
3587;SDS011;1808;53.596;9.972;2023-02-07T10:18:13;35.70;;;16.30;;
3587;SDS011;1808;53.596;9.972;2023-02-07T10:20:48;39.28;;;17.20;;
3587;SDS011;1808;53.596;9.972;2023-02-07T10:26:13;38.17;;;18.35;;
3587;SDS011;1808;53.596;9.972;2023-02-07T10:28:50;37.78;;;15.55;;
3587;SDS011;1808;53.596;9.972;2023-02-07T10:31:24;39.85;;;17.55;;
3587;SDS011;1808;53.596;9.972;2023-02-07T10:33:51;38.30;;;17.13;;
3587;SDS011;1808;53.596;9.972;2023-02-07T10:36:20;45.75;;;19.85;;
3587;SDS011;1808;53.596;9.972;2023-02-07T10:38:51;38.55;;;16.60;;
3587;SDS011;1808;53.596;9.972;2023-02-07T10:41:24;35.10;;;16.70;;
3587;SDS011;1808;53.596;9.972;2023-02-07T10:43:59;47.17;;;18.75;;
3587;SDS011;1808;53.596;9.972;2023-02-07T10:46:25;43.10;;;18.77;;
3587;SDS011;1808;53.596;9.972;2023-02-07T10:48:53;48.80;;;19.33;;
3587;SDS011;1808;53.596;9.972;2023-02-07T10:51:21;40.88;;;16.35;;
3587;SDS011;1808;53.596;9.972;2023-02-07T10:53:59;39.75;;;17.60;;
3587;SDS011;1808;53.596;9.972;2023-02-07T10:56:29;40.22;;;18.48;;
3587;SDS011;1808;53.596;9.972;2023-02-07T10:58:57;46.90;;;18.25;;
3587;SDS011;1808;53.596;9.972;2023-02-07T11:01:24;40.38;;;18.27;;
3587;SDS011;1808;53.596;9.972;2023-02-07T11:03:52;75.82;;;30.38;;
3587;SDS011;1808;53.596;9.972;2023-02-07T11:06:23;45.03;;;19.65;;
3587;SDS011;1808;53.596;9.972;2023-02-07T11:08:50;42.00;;;17.95;;
3587;SDS011;1808;53.596;9.972;2023-02-07T11:11:37;49.00;;;18.67;;
3587;SDS011;1808;53.596;9.972;2023-02-07T11:14:05;46.25;;;19.52;;
3587;SDS011;1808;53.596;9.972;2023-02-07T11:16:33;46.00;;;18.48;;
3587;SDS011;1808;53.596;9.972;2023-02-07T11:19:00;44.72;;;19.77;;
3587;SDS011;1808;53.596;9.972;2023-02-07T11:21:28;49.42;;;19.05;;
3587;SDS011;1808;53.596;9.972;2023-02-07T11:23:57;52.53;;;20.52;;
3587;SDS011;1808;53.596;9.972;2023-02-07T11:26:24;48.15;;;20.95;;
3587;SDS011;1808;53.596;9.972;2023-02-07T11:28:53;49.42;;;21.67;;
3587;SDS011;1808;53.596;9.972;2023-02-07T11:31:22;54.08;;;20.95;;
3587;SDS011;1808;53.596;9.972;2023-02-07T11:33:53;49.20;;;19.92;;
3587;SDS011;1808;53.596;9.972;2023-02-07T11:36:21;55.13;;;20.75;;
3587;SDS011;1808;53.596;9.972;2023-02-07T11:38:52;54.20;;;21.42;;
3587;SDS011;1808;53.596;9.972;2023-02-07T11:41:20;57.30;;;23.02;;
3587;SDS011;1808;53.596;9.972;2023-02-07T11:43:57;51.78;;;20.83;;
3587;SDS011;1808;53.596;9.972;2023-02-07T11:46:34;50.33;;;21.48;;
3587;SDS011;1808;53.596;9.972;2023-02-07T11:49:02;42.20;;;19.48;;
3587;SDS011;1808;53.596;9.972;2023-02-07T11:51:30;52.28;;;21.70;;
3587;SDS011;1808;53.596;9.972;2023-02-07T11:53:58;48.25;;;22.63;;
3587;SDS011;1808;53.596;9.972;2023-02-07T11:56:28;43.50;;;19.17;;
3587;SDS011;1808;53.596;9.972;2023-02-07T11:58:57;50.90;;;22.17;;
3587;SDS011;1808;53.596;9.972;2023-02-07T12:01:24;48.30;;;23.63;;
3587;SDS011;1808;53.596;9.972;2023-02-07T12:03:53;52.92;;;21.20;;
3587;SDS011;1808;53.596;9.972;2023-02-07T12:06:25;51.40;;;22.00;;
3587;SDS011;1808;53.596;9.972;2023-02-07T12:08:55;42.90;;;20.42;;
3587;SDS011;1808;53.596;9.972;2023-02-07T12:11:22;46.60;;;20.38;;
3587;SDS011;1808;53.596;9.972;2023-02-07T12:13:51;46.55;;;21.08;;
3587;SDS011;1808;53.596;9.972;2023-02-07T12:16:23;50.65;;;20.15;;
3587;SDS011;1808;53.596;9.972;2023-02-07T12:18:52;50.22;;;22.98;;
3587;SDS011;1808;53.596;9.972;2023-02-07T12:21:21;48.42;;;21.45;;
3587;SDS011;1808;53.596;9.972;2023-02-07T12:23:51;48.83;;;20.50;;
3587;SDS011;1808;53.596;9.972;2023-02-07T12:26:20;49.90;;;21.10;;
3587;SDS011;1808;53.596;9.972;2023-02-07T12:28:50;55.03;;;23.83;;
3587;SDS011;1808;53.596;9.972;2023-02-07T12:31:24;53.33;;;20.73;;
3587;SDS011;1808;53.596;9.972;2023-02-07T12:33:55;49.40;;;22.48;;
3587;SDS011;1808;53.596;9.972;2023-02-07T12:36:24;51.70;;;21.00;;
3587;SDS011;1808;53.596;9.972;2023-02-07T12:38:53;54.03;;;21.15;;
3587;SDS011;1808;53.596;9.972;2023-02-07T12:41:22;47.33;;;21.58;;
3587;SDS011;1808;53.596;9.972;2023-02-07T12:43:52;52.30;;;23.15;;
3587;SDS011;1808;53.596;9.972;2023-02-07T12:46:27;54.78;;;24.58;;
3587;SDS011;1808;53.596;9.972;2023-02-07T12:49:02;55.67;;;20.83;;
3587;SDS011;1808;53.596;9.972;2023-02-07T12:51:37;50.58;;;23.92;;
3587;SDS011;1808;53.596;9.972;2023-02-07T12:54:11;56.40;;;23.55;;
3587;SDS011;1808;53.596;9.972;2023-02-07T12:56:47;49.83;;;22.52;;
3587;SDS011;1808;53.596;9.972;2023-02-07T12:59:19;50.42;;;19.83;;
3587;SDS011;1808;53.596;9.972;2023-02-07T13:01:54;49.50;;;22.02;;
3587;SDS011;1808;53.596;9.972;2023-02-07T13:04:32;40.75;;;18.83;;
3587;SDS011;1808;53.596;9.972;2023-02-07T13:07:08;44.42;;;19.58;;
3587;SDS011;1808;53.596;9.972;2023-02-07T13:09:42;50.97;;;19.63;;
3587;SDS011;1808;53.596;9.972;2023-02-07T13:14:46;44.58;;;19.05;;
3587;SDS011;1808;53.596;9.972;2023-02-07T13:17:27;48.33;;;21.67;;
3587;SDS011;1808;53.596;9.972;2023-02-07T13:20:01;41.45;;;18.52;;
3587;SDS011;1808;53.596;9.972;2023-02-07T13:22:32;45.58;;;20.20;;
3587;SDS011;1808;53.596;9.972;2023-02-07T13:25:02;45.42;;;20.40;;
3587;SDS011;1808;53.596;9.972;2023-02-07T13:27:31;45.47;;;19.42;;
3587;SDS011;1808;53.596;9.972;2023-02-07T13:29:59;47.53;;;20.42;;
3587;SDS011;1808;53.596;9.972;2023-02-07T13:32:27;44.40;;;19.48;;
3587;SDS011;1808;53.596;9.972;2023-02-07T13:34:54;49.22;;;20.38;;
3587;SDS011;1808;53.596;9.972;2023-02-07T13:37:23;48.00;;;20.38;;
3587;SDS011;1808;53.596;9.972;2023-02-07T13:39:55;51.80;;;21.90;;
3587;SDS011;1808;53.596;9.972;2023-02-07T13:42:25;50.13;;;20.90;;
3587;SDS011;1808;53.596;9.972;2023-02-07T13:44:54;52.90;;;21.85;;
3587;SDS011;1808;53.596;9.972;2023-02-07T13:47:41;51.38;;;23.58;;
3587;SDS011;1808;53.596;9.972;2023-02-07T13:50:18;53.97;;;28.80;;
3587;SDS011;1808;53.596;9.972;2023-02-07T13:52:51;55.05;;;24.95;;
3587;SDS011;1808;53.596;9.972;2023-02-07T13:57:50;41.33;;;17.15;;
3587;SDS011;1808;53.596;9.972;2023-02-07T14:00:35;51.95;;;22.77;;
3587;SDS011;1808;53.596;9.972;2023-02-07T14:03:26;51.22;;;22.92;;
3587;SDS011;1808;53.596;9.972;2023-02-07T14:05:54;48.40;;;18.98;;
3587;SDS011;1808;53.596;9.972;2023-02-07T14:08:39;42.72;;;18.33;;
3587;SDS011;1808;53.596;9.972;2023-02-07T14:11:16;47.30;;;19.50;;
3587;SDS011;1808;53.596;9.972;2023-02-07T14:13:50;46.00;;;19.13;;
3587;SDS011;1808;53.596;9.972;2023-02-07T14:16:41;40.70;;;18.00;;
3587;SDS011;1808;53.596;9.972;2023-02-07T14:19:11;45.08;;;18.60;;
3587;SDS011;1808;53.596;9.972;2023-02-07T14:21:39;44.58;;;19.60;;
3587;SDS011;1808;53.596;9.972;2023-02-07T14:24:16;39.88;;;17.67;;
3587;SDS011;1808;53.596;9.972;2023-02-07T14:26:55;41.45;;;18.20;;
3587;SDS011;1808;53.596;9.972;2023-02-07T14:32:28;37.83;;;17.50;;
3587;SDS011;1808;53.596;9.972;2023-02-07T14:34:59;39.65;;;18.20;;
3587;SDS011;1808;53.596;9.972;2023-02-07T14:37:38;40.85;;;16.77;;
3587;SDS011;1808;53.596;9.972;2023-02-07T14:40:07;39.85;;;17.23;;
3587;SDS011;1808;53.596;9.972;2023-02-07T14:42:34;41.95;;;19.45;;
3587;SDS011;1808;53.596;9.972;2023-02-07T14:45:01;48.33;;;20.02;;
3587;SDS011;1808;53.596;9.972;2023-02-07T14:47:28;47.15;;;17.95;;
3587;SDS011;1808;53.596;9.972;2023-02-07T14:49:55;40.67;;;18.33;;
3587;SDS011;1808;53.596;9.972;2023-02-07T14:52:25;43.13;;;18.77;;
3587;SDS011;1808;53.596;9.972;2023-02-07T14:54:53;40.58;;;17.27;;
3587;SDS011;1808;53.596;9.972;2023-02-07T14:57:24;40.30;;;17.48;;
3587;SDS011;1808;53.596;9.972;2023-02-07T14:59:56;38.55;;;17.35;;
3587;SDS011;1808;53.596;9.972;2023-02-07T15:02:32;48.13;;;18.92;;
3587;SDS011;1808;53.596;9.972;2023-02-07T15:05:19;41.05;;;17.23;;
3587;SDS011;1808;53.596;9.972;2023-02-07T15:07:53;39.53;;;17.55;;
3587;SDS011;1808;53.596;9.972;2023-02-07T15:10:22;39.65;;;18.35;;
3587;SDS011;1808;53.596;9.972;2023-02-07T15:12:51;39.95;;;17.77;;
3587;SDS011;1808;53.596;9.972;2023-02-07T15:15:19;41.63;;;17.90;;
3587;SDS011;1808;53.596;9.972;2023-02-07T15:17:47;42.13;;;17.30;;